sensor_id;sensor_type;location;lat;lon;timestamp;P1;durP1;ratioP1;P2;durP2;ratioP2
60896;SDS011;46749;32.932;-117.130;2023-06-05T00:02:19;6.07;;;1.70;;
60896;SDS011;46749;32.932;-117.130;2023-06-05T00:04:45;5.00;;;2.00;;
60896;SDS011;46749;32.932;-117.130;2023-06-05T00:07:12;7.07;;;2.70;;
60896;SDS011;46749;32.932;-117.130;2023-06-05T00:09:38;6.45;;;2.65;;
60896;SDS011;46749;32.932;-117.130;2023-06-05T00:12:05;5.50;;;1.95;;
60896;SDS011;46749;32.932;-117.130;2023-06-05T00:14:32;6.43;;;1.95;;
60896;SDS011;46749;32.932;-117.130;2023-06-05T00:16:58;13.25;;;3.00;;
60896;SDS011;46749;32.932;-117.130;2023-06-05T00:19:24;14.88;;;3.67;;
60896;SDS011;46749;32.932;-117.130;2023-06-05T00:21:50;18.48;;;3.45;;
60896;SDS011;46749;32.932;-117.130;2023-06-05T00:24:18;24.52;;;3.83;;
60896;SDS011;46749;32.932;-117.130;2023-06-05T00:26:44;16.92;;;3.92;;
60896;SDS011;46749;32.932;-117.130;2023-06-05T00:29:12;13.82;;;3.70;;
60896;SDS011;46749;32.932;-117.130;2023-06-05T00:31:38;20.20;;;4.00;;
60896;SDS011;46749;32.932;-117.130;2023-06-05T00:34:05;13.60;;;3.55;;
60896;SDS011;46749;32.932;-117.130;2023-06-05T00:36:31;11.45;;;3.05;;
60896;SDS011;46749;32.932;-117.130;2023-06-05T00:38:59;12.43;;;3.42;;
60896;SDS011;46749;32.932;-117.130;2023-06-05T00:41:30;14.43;;;3.50;;
60896;SDS011;46749;32.932;-117.130;2023-06-05T00:43:56;10.55;;;2.88;;
60896;SDS011;46749;32.932;-117.130;2023-06-05T00:46:23;12.27;;;3.17;;
60896;SDS011;46749;32.932;-117.130;2023-06-05T00:48:49;11.65;;;3.17;;
60896;SDS011;46749;32.932;-117.130;2023-06-05T00:51:16;10.85;;;3.25;;
60896;SDS011;46749;32.932;-117.130;2023-06-05T00:53:46;8.30;;;2.90;;
60896;SDS011;46749;32.932;-117.130;2023-06-05T00:56:13;15.32;;;4.00;;
60896;SDS011;46749;32.932;-117.130;2023-06-05T00:58:46;13.63;;;3.30;;
60896;SDS011;46749;32.932;-117.130;2023-06-05T01:01:14;10.57;;;3.10;;
60896;SDS011;46749;32.932;-117.130;2023-06-05T01:03:42;13.63;;;3.35;;
60896;SDS011;46749;32.932;-117.130;2023-06-05T01:06:10;14.70;;;3.30;;
60896;SDS011;46749;32.932;-117.130;2023-06-05T01:08:38;9.95;;;3.03;;
60896;SDS011;46749;32.932;-117.130;2023-06-05T01:11:09;12.65;;;3.55;;
60896;SDS011;46749;32.932;-117.130;2023-06-05T01:13:36;11.48;;;3.38;;
60896;SDS011;46749;32.932;-117.130;2023-06-05T01:16:08;12.55;;;2.90;;
60896;SDS011;46749;32.932;-117.130;2023-06-05T01:18:36;10.35;;;3.20;;
60896;SDS011;46749;32.932;-117.130;2023-06-05T01:21:10;11.73;;;3.10;;
60896;SDS011;46749;32.932;-117.130;2023-06-05T01:23:45;10.88;;;2.92;;
60896;SDS011;46749;32.932;-117.130;2023-06-05T01:26:17;10.18;;;2.67;;
60896;SDS011;46749;32.932;-117.130;2023-06-05T01:28:47;14.33;;;3.70;;
60896;SDS011;46749;32.932;-117.130;2023-06-05T01:31:19;9.88;;;3.00;;
60896;SDS011;46749;32.932;-117.130;2023-06-05T01:33:51;12.88;;;3.17;;
60896;SDS011;46749;32.932;-117.130;2023-06-05T01:36:32;11.57;;;3.90;;
60896;SDS011;46749;32.932;-117.130;2023-06-05T01:39:02;15.80;;;4.18;;
60896;SDS011;46749;32.932;-117.130;2023-06-05T01:41:30;10.07;;;3.13;;
60896;SDS011;46749;32.932;-117.130;2023-06-05T01:43:57;12.82;;;3.58;;
60896;SDS011;46749;32.932;-117.130;2023-06-05T01:46:25;11.32;;;3.33;;
60896;SDS011;46749;32.932;-117.130;2023-06-05T01:48:51;10.93;;;3.25;;
60896;SDS011;46749;32.932;-117.130;2023-06-05T01:51:19;14.30;;;3.10;;
60896;SDS011;46749;32.932;-117.130;2023-06-05T01:53:45;10.40;;;3.22;;
60896;SDS011;46749;32.932;-117.130;2023-06-05T01:56:14;9.48;;;3.03;;
60896;SDS011;46749;32.932;-117.130;2023-06-05T01:58:46;13.35;;;3.17;;
60896;SDS011;46749;32.932;-117.130;2023-06-05T02:01:14;13.95;;;3.20;;
60896;SDS011;46749;32.932;-117.130;2023-06-05T02:03:42;9.55;;;2.92;;
60896;SDS011;46749;32.932;-117.130;2023-06-05T02:06:14;11.63;;;3.03;;
60896;SDS011;46749;32.932;-117.130;2023-06-05T02:08:41;10.75;;;2.80;;
60896;SDS011;46749;32.932;-117.130;2023-06-05T02:11:07;11.25;;;2.85;;
60896;SDS011;46749;32.932;-117.130;2023-06-05T02:13:39;8.25;;;2.70;;
60896;SDS011;46749;32.932;-117.130;2023-06-05T02:16:08;9.65;;;3.03;;
60896;SDS011;46749;32.932;-117.130;2023-06-05T02:18:35;11.07;;;2.85;;
60896;SDS011;46749;32.932;-117.130;2023-06-05T02:21:04;13.35;;;3.30;;
60896;SDS011;46749;32.932;-117.130;2023-06-05T02:23:31;10.90;;;3.25;;
60896;SDS011;46749;32.932;-117.130;2023-06-05T02:25:57;10.88;;;2.83;;
60896;SDS011;46749;32.932;-117.130;2023-06-05T02:28:23;10.23;;;2.70;;
60896;SDS011;46749;32.932;-117.130;2023-06-05T02:30:50;9.90;;;3.17;;
60896;SDS011;46749;32.932;-117.130;2023-06-05T02:33:16;11.73;;;2.70;;
60896;SDS011;46749;32.932;-117.130;2023-06-05T02:35:42;9.65;;;2.90;;
60896;SDS011;46749;32.932;-117.130;2023-06-05T02:38:09;9.65;;;3.25;;
60896;SDS011;46749;32.932;-117.130;2023-06-05T02:40:39;9.68;;;2.85;;
60896;SDS011;46749;32.932;-117.130;2023-06-05T02:43:06;11.80;;;3.63;;
60896;SDS011;46749;32.932;-117.130;2023-06-05T02:45:33;13.05;;;3.40;;
60896;SDS011;46749;32.932;-117.130;2023-06-05T02:48:00;12.07;;;3.70;;
60896;SDS011;46749;32.932;-117.130;2023-06-05T02:50:26;11.05;;;2.95;;
60896;SDS011;46749;32.932;-117.130;2023-06-05T02:52:52;10.40;;;2.70;;
60896;SDS011;46749;32.932;-117.130;2023-06-05T02:55:21;9.02;;;2.50;;
60896;SDS011;46749;32.932;-117.130;2023-06-05T02:57:48;14.68;;;3.45;;
60896;SDS011;46749;32.932;-117.130;2023-06-05T03:00:14;9.63;;;3.10;;
60896;SDS011;46749;32.932;-117.130;2023-06-05T03:02:43;10.25;;;2.50;;
60896;SDS011;46749;32.932;-117.130;2023-06-05T03:05:15;12.85;;;3.50;;
60896;SDS011;46749;32.932;-117.130;2023-06-05T03:07:52;12.80;;;3.38;;
60896;SDS011;46749;32.932;-117.130;2023-06-05T03:10:19;10.95;;;3.15;;
60896;SDS011;46749;32.932;-117.130;2023-06-05T03:12:46;10.07;;;3.03;;
60896;SDS011;46749;32.932;-117.130;2023-06-05T03:15:14;11.77;;;3.25;;
60896;SDS011;46749;32.932;-117.130;2023-06-05T03:17:42;8.98;;;2.83;;
60896;SDS011;46749;32.932;-117.130;2023-06-05T03:20:08;10.20;;;2.80;;
60896;SDS011;46749;32.932;-117.130;2023-06-05T03:22:35;15.15;;;3.35;;
60896;SDS011;46749;32.932;-117.130;2023-06-05T03:25:01;12.30;;;3.00;;
60896;SDS011;46749;32.932;-117.130;2023-06-05T03:27:28;9.73;;;2.85;;
60896;SDS011;46749;32.932;-117.130;2023-06-05T03:29:54;9.57;;;2.65;;
60896;SDS011;46749;32.932;-117.130;2023-06-05T03:32:21;12.40;;;3.47;;
60896;SDS011;46749;32.932;-117.130;2023-06-05T03:34:48;11.52;;;3.30;;
60896;SDS011;46749;32.932;-117.130;2023-06-05T03:37:14;17.08;;;2.97;;
60896;SDS011;46749;32.932;-117.130;2023-06-05T03:39:41;14.93;;;3.40;;
60896;SDS011;46749;32.932;-117.130;2023-06-05T03:42:08;19.10;;;3.90;;
60896;SDS011;46749;32.932;-117.130;2023-06-05T03:44:36;14.80;;;3.75;;
60896;SDS011;46749;32.932;-117.130;2023-06-05T03:47:03;23.67;;;3.47;;
60896;SDS011;46749;32.932;-117.130;2023-06-05T03:49:31;15.30;;;3.33;;
60896;SDS011;46749;32.932;-117.130;2023-06-05T03:51:58;16.45;;;3.58;;
60896;SDS011;46749;32.932;-117.130;2023-06-05T03:54:29;15.88;;;3.50;;
60896;SDS011;46749;32.932;-117.130;2023-06-05T03:56:58;12.13;;;2.92;;
60896;SDS011;46749;32.932;-117.130;2023-06-05T03:59:26;11.90;;;3.08;;
60896;SDS011;46749;32.932;-117.130;2023-06-05T04:01:54;15.50;;;3.90;;
60896;SDS011;46749;32.932;-117.130;2023-06-05T04:04:22;11.43;;;2.78;;
60896;SDS011;46749;32.932;-117.130;2023-06-05T04:06:48;8.18;;;3.20;;
60896;SDS011;46749;32.932;-117.130;2023-06-05T04:09:19;11.70;;;2.75;;
60896;SDS011;46749;32.932;-117.130;2023-06-05T04:11:45;9.10;;;3.03;;
60896;SDS011;46749;32.932;-117.130;2023-06-05T04:14:12;14.70;;;3.22;;
60896;SDS011;46749;32.932;-117.130;2023-06-05T04:16:39;13.60;;;3.05;;
60896;SDS011;46749;32.932;-117.130;2023-06-05T04:19:09;11.32;;;2.85;;
60896;SDS011;46749;32.932;-117.130;2023-06-05T04:21:37;11.02;;;2.88;;
60896;SDS011;46749;32.932;-117.130;2023-06-05T04:24:07;8.57;;;2.75;;
60896;SDS011;46749;32.932;-117.130;2023-06-05T04:26:35;9.18;;;2.67;;
60896;SDS011;46749;32.932;-117.130;2023-06-05T04:29:03;16.85;;;3.75;;
60896;SDS011;46749;32.932;-117.130;2023-06-05T04:31:47;11.98;;;3.17;;
60896;SDS011;46749;32.932;-117.130;2023-06-05T04:34:33;11.85;;;2.83;;
60896;SDS011;46749;32.932;-117.130;2023-06-05T04:36:59;9.45;;;2.78;;
60896;SDS011;46749;32.932;-117.130;2023-06-05T04:39:26;12.95;;;3.50;;
60896;SDS011;46749;32.932;-117.130;2023-06-05T04:41:53;10.48;;;2.97;;
60896;SDS011;46749;32.932;-117.130;2023-06-05T04:44:20;12.13;;;2.65;;
60896;SDS011;46749;32.932;-117.130;2023-06-05T04:46:46;10.90;;;3.20;;
60896;SDS011;46749;32.932;-117.130;2023-06-05T04:49:13;8.38;;;3.03;;
60896;SDS011;46749;32.932;-117.130;2023-06-05T04:51:40;11.25;;;2.80;;
60896;SDS011;46749;32.932;-117.130;2023-06-05T04:54:09;11.07;;;3.65;;
60896;SDS011;46749;32.932;-117.130;2023-06-05T04:56:35;11.68;;;3.20;;
60896;SDS011;46749;32.932;-117.130;2023-06-05T04:59:03;11.07;;;3.20;;
60896;SDS011;46749;32.932;-117.130;2023-06-05T05:01:29;12.73;;;3.30;;
60896;SDS011;46749;32.932;-117.130;2023-06-05T05:03:56;13.77;;;3.30;;
60896;SDS011;46749;32.932;-117.130;2023-06-05T05:06:22;14.50;;;3.10;;
60896;SDS011;46749;32.932;-117.130;2023-06-05T05:08:49;12.85;;;3.35;;
60896;SDS011;46749;32.932;-117.130;2023-06-05T05:11:19;11.25;;;2.97;;
60896;SDS011;46749;32.932;-117.130;2023-06-05T05:13:45;10.02;;;2.60;;
60896;SDS011;46749;32.932;-117.130;2023-06-05T05:16:12;11.63;;;3.47;;
60896;SDS011;46749;32.932;-117.130;2023-06-05T05:18:39;10.57;;;3.15;;
60896;SDS011;46749;32.932;-117.130;2023-06-05T05:21:07;11.68;;;3.03;;
60896;SDS011;46749;32.932;-117.130;2023-06-05T05:23:33;10.85;;;3.15;;
60896;SDS011;46749;32.932;-117.130;2023-06-05T05:25:59;12.57;;;3.17;;
60896;SDS011;46749;32.932;-117.130;2023-06-05T05:28:27;7.75;;;2.83;;
60896;SDS011;46749;32.932;-117.130;2023-06-05T05:30:53;8.30;;;2.50;;
60896;SDS011;46749;32.932;-117.130;2023-06-05T05:33:22;9.73;;;2.97;;
60896;SDS011;46749;32.932;-117.130;2023-06-05T05:35:49;11.32;;;3.00;;
60896;SDS011;46749;32.932;-117.130;2023-06-05T05:38:15;13.27;;;2.92;;
60896;SDS011;46749;32.932;-117.130;2023-06-05T05:40:42;10.20;;;2.88;;
60896;SDS011;46749;32.932;-117.130;2023-06-05T05:43:08;11.70;;;2.47;;
60896;SDS011;46749;32.932;-117.130;2023-06-05T05:45:34;6.57;;;2.60;;
60896;SDS011;46749;32.932;-117.130;2023-06-05T05:48:03;11.07;;;3.00;;
60896;SDS011;46749;32.932;-117.130;2023-06-05T05:50:30;10.52;;;2.70;;
60896;SDS011;46749;32.932;-117.130;2023-06-05T05:52:56;11.00;;;2.92;;
60896;SDS011;46749;32.932;-117.130;2023-06-05T05:55:24;12.05;;;3.10;;
60896;SDS011;46749;32.932;-117.130;2023-06-05T05:57:50;9.00;;;2.78;;
60896;SDS011;46749;32.932;-117.130;2023-06-05T06:00:16;11.32;;;3.80;;
60896;SDS011;46749;32.932;-117.130;2023-06-05T06:02:43;8.70;;;2.75;;
60896;SDS011;46749;32.932;-117.130;2023-06-05T06:05:09;9.88;;;2.50;;
60896;SDS011;46749;32.932;-117.130;2023-06-05T06:07:37;13.82;;;3.03;;
60896;SDS011;46749;32.932;-117.130;2023-06-05T06:10:06;11.45;;;2.92;;
60896;SDS011;46749;32.932;-117.130;2023-06-05T06:12:33;7.57;;;2.50;;
60896;SDS011;46749;32.932;-117.130;2023-06-05T06:15:00;10.15;;;3.28;;
60896;SDS011;46749;32.932;-117.130;2023-06-05T06:17:26;8.35;;;2.42;;
60896;SDS011;46749;32.932;-117.130;2023-06-05T06:19:52;10.07;;;2.95;;
60896;SDS011;46749;32.932;-117.130;2023-06-05T06:22:19;9.55;;;2.97;;
60896;SDS011;46749;32.932;-117.130;2023-06-05T06:24:45;10.88;;;2.92;;
60896;SDS011;46749;32.932;-117.130;2023-06-05T06:27:12;7.95;;;2.60;;
60896;SDS011;46749;32.932;-117.130;2023-06-05T06:29:48;11.43;;;3.28;;
60896;SDS011;46749;32.932;-117.130;2023-06-05T06:32:19;10.65;;;2.85;;
60896;SDS011;46749;32.932;-117.130;2023-06-05T06:34:47;10.45;;;2.88;;
60896;SDS011;46749;32.932;-117.130;2023-06-05T06:37:13;10.00;;;3.15;;
60896;SDS011;46749;32.932;-117.130;2023-06-05T06:39:41;9.70;;;2.58;;
60896;SDS011;46749;32.932;-117.130;2023-06-05T06:42:10;10.80;;;3.00;;
60896;SDS011;46749;32.932;-117.130;2023-06-05T06:44:36;14.05;;;3.15;;
60896;SDS011;46749;32.932;-117.130;2023-06-05T06:47:03;12.20;;;2.92;;
60896;SDS011;46749;32.932;-117.130;2023-06-05T06:49:29;10.60;;;2.83;;
60896;SDS011;46749;32.932;-117.130;2023-06-05T06:51:55;10.48;;;3.28;;
60896;SDS011;46749;32.932;-117.130;2023-06-05T06:54:22;9.32;;;2.58;;
60896;SDS011;46749;32.932;-117.130;2023-06-05T06:56:50;10.48;;;2.75;;
60896;SDS011;46749;32.932;-117.130;2023-06-05T06:59:17;13.10;;;2.72;;
60896;SDS011;46749;32.932;-117.130;2023-06-05T07:01:47;6.80;;;2.47;;
60896;SDS011;46749;32.932;-117.130;2023-06-05T07:04:33;11.82;;;3.00;;
60896;SDS011;46749;32.932;-117.130;2023-06-05T07:06:59;11.43;;;3.25;;
60896;SDS011;46749;32.932;-117.130;2023-06-05T07:09:25;9.18;;;2.45;;
60896;SDS011;46749;32.932;-117.130;2023-06-05T07:11:53;8.45;;;2.50;;
60896;SDS011;46749;32.932;-117.130;2023-06-05T07:14:20;8.40;;;2.80;;
60896;SDS011;46749;32.932;-117.130;2023-06-05T07:16:47;9.77;;;2.80;;
60896;SDS011;46749;32.932;-117.130;2023-06-05T07:19:16;9.85;;;2.70;;
60896;SDS011;46749;32.932;-117.130;2023-06-05T07:21:43;11.35;;;3.13;;
60896;SDS011;46749;32.932;-117.130;2023-06-05T07:24:09;7.38;;;2.50;;
60896;SDS011;46749;32.932;-117.130;2023-06-05T07:26:35;11.18;;;2.75;;
60896;SDS011;46749;32.932;-117.130;2023-06-05T07:29:01;7.38;;;2.33;;
60896;SDS011;46749;32.932;-117.130;2023-06-05T07:31:27;9.23;;;2.45;;
60896;SDS011;46749;32.932;-117.130;2023-06-05T07:33:55;8.10;;;2.25;;
60896;SDS011;46749;32.932;-117.130;2023-06-05T07:36:21;8.60;;;2.50;;
60896;SDS011;46749;32.932;-117.130;2023-06-05T07:38:48;9.73;;;2.85;;
60896;SDS011;46749;32.932;-117.130;2023-06-05T07:41:14;11.60;;;2.70;;
60896;SDS011;46749;32.932;-117.130;2023-06-05T07:43:40;11.75;;;2.58;;
60896;SDS011;46749;32.932;-117.130;2023-06-05T07:46:07;11.82;;;2.90;;
60896;SDS011;46749;32.932;-117.130;2023-06-05T07:48:35;7.85;;;2.70;;
60896;SDS011;46749;32.932;-117.130;2023-06-05T07:51:01;9.43;;;2.80;;
60896;SDS011;46749;32.932;-117.130;2023-06-05T07:53:28;11.23;;;2.90;;
60896;SDS011;46749;32.932;-117.130;2023-06-05T07:55:54;8.60;;;2.72;;
60896;SDS011;46749;32.932;-117.130;2023-06-05T07:58:21;10.23;;;2.88;;
60896;SDS011;46749;32.932;-117.130;2023-06-05T08:00:47;8.95;;;2.55;;
60896;SDS011;46749;32.932;-117.130;2023-06-05T08:03:14;10.82;;;2.63;;
60896;SDS011;46749;32.932;-117.130;2023-06-05T08:05:48;10.27;;;2.67;;
60896;SDS011;46749;32.932;-117.130;2023-06-05T08:08:15;6.97;;;2.60;;
60896;SDS011;46749;32.932;-117.130;2023-06-05T08:10:42;7.53;;;2.47;;
60896;SDS011;46749;32.932;-117.130;2023-06-05T08:13:09;10.23;;;2.75;;
60896;SDS011;46749;32.932;-117.130;2023-06-05T08:15:36;7.63;;;2.58;;
60896;SDS011;46749;32.932;-117.130;2023-06-05T08:18:02;12.95;;;2.95;;
60896;SDS011;46749;32.932;-117.130;2023-06-05T08:20:29;7.97;;;2.38;;
60896;SDS011;46749;32.932;-117.130;2023-06-05T08:22:55;9.70;;;2.60;;
60896;SDS011;46749;32.932;-117.130;2023-06-05T08:25:24;10.52;;;2.58;;
60896;SDS011;46749;32.932;-117.130;2023-06-05T08:27:51;8.55;;;2.53;;
60896;SDS011;46749;32.932;-117.130;2023-06-05T08:30:18;9.18;;;2.70;;
60896;SDS011;46749;32.932;-117.130;2023-06-05T08:32:45;11.73;;;3.05;;
60896;SDS011;46749;32.932;-117.130;2023-06-05T08:35:11;10.35;;;2.75;;
60896;SDS011;46749;32.932;-117.130;2023-06-05T08:37:38;9.55;;;2.40;;
60896;SDS011;46749;32.932;-117.130;2023-06-05T08:40:05;10.02;;;2.50;;
60896;SDS011;46749;32.932;-117.130;2023-06-05T08:42:34;11.05;;;3.05;;
60896;SDS011;46749;32.932;-117.130;2023-06-05T08:45:00;11.43;;;2.92;;
60896;SDS011;46749;32.932;-117.130;2023-06-05T08:47:27;10.02;;;2.58;;
60896;SDS011;46749;32.932;-117.130;2023-06-05T08:49:57;10.43;;;3.38;;
60896;SDS011;46749;32.932;-117.130;2023-06-05T08:52:34;10.00;;;2.55;;
60896;SDS011;46749;32.932;-117.130;2023-06-05T08:55:04;7.93;;;2.75;;
60896;SDS011;46749;32.932;-117.130;2023-06-05T08:57:35;8.65;;;2.75;;
60896;SDS011;46749;32.932;-117.130;2023-06-05T09:00:05;12.52;;;3.03;;
60896;SDS011;46749;32.932;-117.130;2023-06-05T09:02:42;12.40;;;3.45;;
60896;SDS011;46749;32.932;-117.130;2023-06-05T09:05:09;8.98;;;2.88;;
60896;SDS011;46749;32.932;-117.130;2023-06-05T09:07:36;9.05;;;2.78;;
60896;SDS011;46749;32.932;-117.130;2023-06-05T09:10:03;12.52;;;3.13;;
60896;SDS011;46749;32.932;-117.130;2023-06-05T09:12:30;12.13;;;2.80;;
60896;SDS011;46749;32.932;-117.130;2023-06-05T09:14:56;9.70;;;2.78;;
60896;SDS011;46749;32.932;-117.130;2023-06-05T09:17:22;7.15;;;2.20;;
60896;SDS011;46749;32.932;-117.130;2023-06-05T09:19:48;10.02;;;2.70;;
60896;SDS011;46749;32.932;-117.130;2023-06-05T09:22:16;7.75;;;2.70;;
60896;SDS011;46749;32.932;-117.130;2023-06-05T09:24:58;9.38;;;2.95;;
60896;SDS011;46749;32.932;-117.130;2023-06-05T09:27:26;8.60;;;2.20;;
60896;SDS011;46749;32.932;-117.130;2023-06-05T09:29:56;15.52;;;3.00;;
60896;SDS011;46749;32.932;-117.130;2023-06-05T09:32:28;7.90;;;2.22;;
60896;SDS011;46749;32.932;-117.130;2023-06-05T09:34:55;10.95;;;3.00;;
60896;SDS011;46749;32.932;-117.130;2023-06-05T09:37:32;7.63;;;2.30;;
60896;SDS011;46749;32.932;-117.130;2023-06-05T09:40:00;12.30;;;2.72;;
60896;SDS011;46749;32.932;-117.130;2023-06-05T09:42:33;8.05;;;2.03;;
60896;SDS011;46749;32.932;-117.130;2023-06-05T09:45:00;9.40;;;2.63;;
60896;SDS011;46749;32.932;-117.130;2023-06-05T09:47:27;10.38;;;3.25;;
60896;SDS011;46749;32.932;-117.130;2023-06-05T09:49:54;7.68;;;2.83;;
60896;SDS011;46749;32.932;-117.130;2023-06-05T09:52:21;10.82;;;3.22;;
60896;SDS011;46749;32.932;-117.130;2023-06-05T09:54:47;9.40;;;2.58;;
60896;SDS011;46749;32.932;-117.130;2023-06-05T09:57:13;11.52;;;2.97;;
60896;SDS011;46749;32.932;-117.130;2023-06-05T09:59:49;9.63;;;2.53;;
60896;SDS011;46749;32.932;-117.130;2023-06-05T10:02:21;10.82;;;2.67;;
60896;SDS011;46749;32.932;-117.130;2023-06-05T10:05:03;8.45;;;2.72;;
60896;SDS011;46749;32.932;-117.130;2023-06-05T10:07:30;11.60;;;3.63;;
60896;SDS011;46749;32.932;-117.130;2023-06-05T10:10:06;9.88;;;3.03;;
60896;SDS011;46749;32.932;-117.130;2023-06-05T10:12:35;8.65;;;2.33;;
60896;SDS011;46749;32.932;-117.130;2023-06-05T10:15:02;8.40;;;2.80;;
60896;SDS011;46749;32.932;-117.130;2023-06-05T10:17:28;7.93;;;2.58;;
60896;SDS011;46749;32.932;-117.130;2023-06-05T10:19:54;9.63;;;2.53;;
60896;SDS011;46749;32.932;-117.130;2023-06-05T10:22:21;9.02;;;2.33;;
60896;SDS011;46749;32.932;-117.130;2023-06-05T10:24:54;11.98;;;2.78;;
60896;SDS011;46749;32.932;-117.130;2023-06-05T10:38:45;6.10;;;2.08;;
60896;SDS011;46749;32.932;-117.130;2023-06-05T10:41:12;8.13;;;2.20;;
60896;SDS011;46749;32.932;-117.130;2023-06-05T10:46:27;10.85;;;3.75;;
60896;SDS011;46749;32.932;-117.130;2023-06-05T10:49:16;10.98;;;2.45;;
60896;SDS011;46749;32.932;-117.130;2023-06-05T10:51:45;8.60;;;2.42;;
60896;SDS011;46749;32.932;-117.130;2023-06-05T11:05:04;7.32;;;2.00;;
60896;SDS011;46749;32.932;-117.130;2023-06-05T11:07:24;7.13;;;2.30;;
60896;SDS011;46749;32.932;-117.130;2023-06-05T11:10:08;9.55;;;2.97;;
60896;SDS011;46749;32.932;-117.130;2023-06-05T11:15:07;10.00;;;2.55;;
60896;SDS011;46749;32.932;-117.130;2023-06-05T11:17:46;6.90;;;1.95;;
60896;SDS011;46749;32.932;-117.130;2023-06-05T11:27:59;9.88;;;2.88;;
60896;SDS011;46749;32.932;-117.130;2023-06-05T11:30:39;7.55;;;2.38;;
60896;SDS011;46749;32.932;-117.130;2023-06-05T11:33:08;9.15;;;2.33;;
60896;SDS011;46749;32.932;-117.130;2023-06-05T11:35:37;7.88;;;2.50;;
60896;SDS011;46749;32.932;-117.130;2023-06-05T11:38:18;9.70;;;2.33;;
60896;SDS011;46749;32.932;-117.130;2023-06-05T11:40:47;10.43;;;2.30;;
60896;SDS011;46749;32.932;-117.130;2023-06-05T11:43:14;8.18;;;2.28;;
60896;SDS011;46749;32.932;-117.130;2023-06-05T11:45:53;5.30;;;2.28;;
60896;SDS011;46749;32.932;-117.130;2023-06-05T11:48:21;7.50;;;2.10;;
60896;SDS011;46749;32.932;-117.130;2023-06-05T11:50:52;7.28;;;2.13;;
60896;SDS011;46749;32.932;-117.130;2023-06-05T11:53:21;7.47;;;1.98;;
60896;SDS011;46749;32.932;-117.130;2023-06-05T11:55:48;6.60;;;2.22;;
60896;SDS011;46749;32.932;-117.130;2023-06-05T11:58:48;4.78;;;1.75;;
60896;SDS011;46749;32.932;-117.130;2023-06-05T12:01:11;5.72;;;2.30;;
60896;SDS011;46749;32.932;-117.130;2023-06-05T12:03:48;8.05;;;2.10;;
60896;SDS011;46749;32.932;-117.130;2023-06-05T12:06:28;8.00;;;1.95;;
60896;SDS011;46749;32.932;-117.130;2023-06-05T12:09:06;5.80;;;1.77;;
60896;SDS011;46749;32.932;-117.130;2023-06-05T12:11:36;8.00;;;2.45;;
60896;SDS011;46749;32.932;-117.130;2023-06-05T12:14:03;5.72;;;1.85;;
60896;SDS011;46749;32.932;-117.130;2023-06-05T12:16:30;6.55;;;2.00;;
60896;SDS011;46749;32.932;-117.130;2023-06-05T12:19:01;7.60;;;2.30;;
60896;SDS011;46749;32.932;-117.130;2023-06-05T12:21:35;9.13;;;2.00;;
60896;SDS011;46749;32.932;-117.130;2023-06-05T12:24:02;7.38;;;1.90;;
60896;SDS011;46749;32.932;-117.130;2023-06-05T12:26:46;7.45;;;2.38;;
60896;SDS011;46749;32.932;-117.130;2023-06-05T12:29:20;6.45;;;2.08;;
60896;SDS011;46749;32.932;-117.130;2023-06-05T12:31:48;6.85;;;1.98;;
60896;SDS011;46749;32.932;-117.130;2023-06-05T12:34:15;4.55;;;1.88;;
60896;SDS011;46749;32.932;-117.130;2023-06-05T12:36:41;5.85;;;1.80;;
60896;SDS011;46749;32.932;-117.130;2023-06-05T12:39:14;6.80;;;1.98;;
60896;SDS011;46749;32.932;-117.130;2023-06-05T12:41:43;6.28;;;1.85;;
60896;SDS011;46749;32.932;-117.130;2023-06-05T12:44:10;5.47;;;1.80;;
60896;SDS011;46749;32.932;-117.130;2023-06-05T12:46:37;4.68;;;1.95;;
60896;SDS011;46749;32.932;-117.130;2023-06-05T12:49:03;4.55;;;1.50;;
60896;SDS011;46749;32.932;-117.130;2023-06-05T12:51:31;6.13;;;1.70;;
60896;SDS011;46749;32.932;-117.130;2023-06-05T12:53:57;4.50;;;1.45;;
60896;SDS011;46749;32.932;-117.130;2023-06-05T12:56:23;5.82;;;1.85;;
60896;SDS011;46749;32.932;-117.130;2023-06-05T12:58:54;4.57;;;1.80;;
60896;SDS011;46749;32.932;-117.130;2023-06-05T13:01:25;6.40;;;1.50;;
60896;SDS011;46749;32.932;-117.130;2023-06-05T13:03:52;6.47;;;2.00;;
60896;SDS011;46749;32.932;-117.130;2023-06-05T13:06:19;5.47;;;1.50;;
60896;SDS011;46749;32.932;-117.130;2023-06-05T13:08:46;8.30;;;1.70;;
60896;SDS011;46749;32.932;-117.130;2023-06-05T13:11:13;5.43;;;1.67;;
60896;SDS011;46749;32.932;-117.130;2023-06-05T13:13:39;6.30;;;1.88;;
60896;SDS011;46749;32.932;-117.130;2023-06-05T13:16:05;5.07;;;1.63;;
60896;SDS011;46749;32.932;-117.130;2023-06-05T13:18:33;6.40;;;1.42;;
60896;SDS011;46749;32.932;-117.130;2023-06-05T13:21:04;5.57;;;1.85;;
60896;SDS011;46749;32.932;-117.130;2023-06-05T13:23:30;5.63;;;1.52;;
60896;SDS011;46749;32.932;-117.130;2023-06-05T13:25:57;5.88;;;1.75;;
60896;SDS011;46749;32.932;-117.130;2023-06-05T13:28:24;6.22;;;1.73;;
60896;SDS011;46749;32.932;-117.130;2023-06-05T13:30:50;5.90;;;1.42;;
60896;SDS011;46749;32.932;-117.130;2023-06-05T13:33:18;5.85;;;2.08;;
60896;SDS011;46749;32.932;-117.130;2023-06-05T13:35:45;5.70;;;1.38;;
60896;SDS011;46749;32.932;-117.130;2023-06-05T13:38:11;3.30;;;1.23;;
60896;SDS011;46749;32.932;-117.130;2023-06-05T13:40:37;5.78;;;1.25;;
60896;SDS011;46749;32.932;-117.130;2023-06-05T13:43:04;4.15;;;1.60;;
60896;SDS011;46749;32.932;-117.130;2023-06-05T13:45:30;3.35;;;1.17;;
60896;SDS011;46749;32.932;-117.130;2023-06-05T13:47:56;3.45;;;1.08;;
60896;SDS011;46749;32.932;-117.130;2023-06-05T13:50:22;3.33;;;0.98;;
60896;SDS011;46749;32.932;-117.130;2023-06-05T13:52:48;4.90;;;1.38;;
60896;SDS011;46749;32.932;-117.130;2023-06-05T13:55:15;4.35;;;1.23;;
60896;SDS011;46749;32.932;-117.130;2023-06-05T13:57:41;3.95;;;1.20;;
60896;SDS011;46749;32.932;-117.130;2023-06-05T14:00:08;3.58;;;1.20;;
60896;SDS011;46749;32.932;-117.130;2023-06-05T14:02:34;4.63;;;1.27;;
60896;SDS011;46749;32.932;-117.130;2023-06-05T14:05:00;3.40;;;1.08;;
60896;SDS011;46749;32.932;-117.130;2023-06-05T14:07:26;2.97;;;0.90;;
60896;SDS011;46749;32.932;-117.130;2023-06-05T14:09:53;4.03;;;1.23;;
60896;SDS011;46749;32.932;-117.130;2023-06-05T14:12:19;4.13;;;1.20;;
60896;SDS011;46749;32.932;-117.130;2023-06-05T14:14:45;4.45;;;1.30;;
60896;SDS011;46749;32.932;-117.130;2023-06-05T14:17:11;4.82;;;1.50;;
60896;SDS011;46749;32.932;-117.130;2023-06-05T14:19:37;3.72;;;1.02;;
60896;SDS011;46749;32.932;-117.130;2023-06-05T14:22:03;5.00;;;1.38;;
60896;SDS011;46749;32.932;-117.130;2023-06-05T14:24:31;2.13;;;1.00;;
60896;SDS011;46749;32.932;-117.130;2023-06-05T14:26:57;16.70;;;1.92;;
60896;SDS011;46749;32.932;-117.130;2023-06-05T14:29:23;40.33;;;2.40;;
60896;SDS011;46749;32.932;-117.130;2023-06-05T14:31:50;8.05;;;1.13;;
60896;SDS011;46749;32.932;-117.130;2023-06-05T14:34:16;11.43;;;1.58;;
60896;SDS011;46749;32.932;-117.130;2023-06-05T14:36:42;10.55;;;1.42;;
60896;SDS011;46749;32.932;-117.130;2023-06-05T14:39:18;6.40;;;1.10;;
60896;SDS011;46749;32.932;-117.130;2023-06-05T14:41:47;6.78;;;1.30;;
60896;SDS011;46749;32.932;-117.130;2023-06-05T14:44:14;7.13;;;1.02;;
60896;SDS011;46749;32.932;-117.130;2023-06-05T14:46:40;4.85;;;1.10;;